Terminal Aerodrome Forecast
Issued by NWS Twin Cities, MN

Home | Current Version | Previous Version | Graphics & Text | Print | Product List | Glossary On
Versions: 1 2 3 4 5 6 7 8 9 10 11 12 13 14 15 16 17 18
238
FTUS43 KMPX 201931 AAA
TAFEAU
TAF AMD
KEAU 201931Z 2020/2118 32010KT P6SM OVC025
      TEMPO 2020/2022 2SM -DZ OVC012
     FM210000 33012KT P6SM OVC025
     FM210300 32012KT P6SM OVC020
     FM210900 32007KT P6SM SCT020=

USA.gov is the U.S. government's official web portal to all federal, state and local government web resources and services.